sensor_id;sensor_type;location;lat;lon;timestamp;temperature;humidity
360;DHT22;168;48.872;9.226;2023-08-17T00:01:17;21.30;64.40
360;DHT22;168;48.872;9.226;2023-08-17T00:03:45;21.30;64.90
360;DHT22;168;48.872;9.226;2023-08-17T00:06:15;21.30;64.80
360;DHT22;168;48.872;9.226;2023-08-17T00:08:46;21.30;64.60
360;DHT22;168;48.872;9.226;2023-08-17T00:11:17;21.30;65.10
360;DHT22;168;48.872;9.226;2023-08-17T00:13:47;21.20;64.70
360;DHT22;168;48.872;9.226;2023-08-17T00:16:16;21.20;65.00
360;DHT22;168;48.872;9.226;2023-08-17T00:18:45;21.20;64.50
360;DHT22;168;48.872;9.226;2023-08-17T00:21:14;21.20;63.80
360;DHT22;168;48.872;9.226;2023-08-17T00:23:45;21.20;63.50
360;DHT22;168;48.872;9.226;2023-08-17T00:26:15;21.20;63.80
360;DHT22;168;48.872;9.226;2023-08-17T00:28:44;21.10;64.00
360;DHT22;168;48.872;9.226;2023-08-17T00:31:13;21.10;63.70
360;DHT22;168;48.872;9.226;2023-08-17T00:33:42;21.20;64.20
360;DHT22;168;48.872;9.226;2023-08-17T00:36:10;21.30;64.90
360;DHT22;168;48.872;9.226;2023-08-17T00:38:41;21.40;65.40
360;DHT22;168;48.872;9.226;2023-08-17T00:41:10;21.50;67.80
360;DHT22;168;48.872;9.226;2023-08-17T00:43:38;21.70;70.30
360;DHT22;168;48.872;9.226;2023-08-17T00:46:07;21.60;70.00
360;DHT22;168;48.872;9.226;2023-08-17T00:48:36;21.50;68.90
360;DHT22;168;48.872;9.226;2023-08-17T00:51:07;21.40;68.30
360;DHT22;168;48.872;9.226;2023-08-17T00:53:37;21.40;66.00
360;DHT22;168;48.872;9.226;2023-08-17T00:56:08;21.40;64.40
360;DHT22;168;48.872;9.226;2023-08-17T00:58:36;21.40;64.30
360;DHT22;168;48.872;9.226;2023-08-17T01:01:05;21.40;65.20
360;DHT22;168;48.872;9.226;2023-08-17T01:03:34;21.50;66.40
360;DHT22;168;48.872;9.226;2023-08-17T01:06:03;21.60;68.60
360;DHT22;168;48.872;9.226;2023-08-17T01:08:31;21.60;71.00
360;DHT22;168;48.872;9.226;2023-08-17T01:11:18;21.60;71.30
360;DHT22;168;48.872;9.226;2023-08-17T01:13:52;21.60;71.80
360;DHT22;168;48.872;9.226;2023-08-17T01:16:27;21.50;69.70
360;DHT22;168;48.872;9.226;2023-08-17T01:18:57;21.40;68.20
360;DHT22;168;48.872;9.226;2023-08-17T01:21:34;21.40;68.20
360;DHT22;168;48.872;9.226;2023-08-17T01:24:05;21.50;69.10
360;DHT22;168;48.872;9.226;2023-08-17T01:26:34;21.50;69.00
360;DHT22;168;48.872;9.226;2023-08-17T01:29:04;21.50;68.70
360;DHT22;168;48.872;9.226;2023-08-17T01:31:40;21.40;67.90
360;DHT22;168;48.872;9.226;2023-08-17T01:34:17;21.50;69.10
360;DHT22;168;48.872;9.226;2023-08-17T01:36:52;21.60;69.60
360;DHT22;168;48.872;9.226;2023-08-17T01:39:26;21.50;69.50
360;DHT22;168;48.872;9.226;2023-08-17T01:41:57;21.50;68.40
360;DHT22;168;48.872;9.226;2023-08-17T01:44:27;21.50;69.80
360;DHT22;168;48.872;9.226;2023-08-17T01:46:55;21.60;71.50
360;DHT22;168;48.872;9.226;2023-08-17T01:49:23;21.70;72.70
360;DHT22;168;48.872;9.226;2023-08-17T01:51:52;21.60;72.10
360;DHT22;168;48.872;9.226;2023-08-17T01:54:21;21.60;71.90
360;DHT22;168;48.872;9.226;2023-08-17T01:56:50;21.50;71.30
360;DHT22;168;48.872;9.226;2023-08-17T01:59:20;21.50;71.00
360;DHT22;168;48.872;9.226;2023-08-17T02:01:50;21.40;70.20
360;DHT22;168;48.872;9.226;2023-08-17T02:04:18;21.50;70.70
360;DHT22;168;48.872;9.226;2023-08-17T02:06:46;21.50;70.60
360;DHT22;168;48.872;9.226;2023-08-17T02:09:14;21.50;69.50
360;DHT22;168;48.872;9.226;2023-08-17T02:11:43;21.40;69.90
360;DHT22;168;48.872;9.226;2023-08-17T02:14:10;21.40;69.90
360;DHT22;168;48.872;9.226;2023-08-17T02:16:38;21.30;68.00
360;DHT22;168;48.872;9.226;2023-08-17T02:19:06;21.30;67.70
360;DHT22;168;48.872;9.226;2023-08-17T02:21:34;21.30;67.20
360;DHT22;168;48.872;9.226;2023-08-17T02:24:01;21.30;67.80
360;DHT22;168;48.872;9.226;2023-08-17T02:26:30;21.40;69.40
360;DHT22;168;48.872;9.226;2023-08-17T02:28:59;21.50;70.10
360;DHT22;168;48.872;9.226;2023-08-17T02:31:26;21.50;70.20
360;DHT22;168;48.872;9.226;2023-08-17T02:33:55;21.50;71.30
360;DHT22;168;48.872;9.226;2023-08-17T02:36:27;21.50;71.00
360;DHT22;168;48.872;9.226;2023-08-17T02:38:56;21.50;71.30
360;DHT22;168;48.872;9.226;2023-08-17T02:41:24;21.50;69.90
360;DHT22;168;48.872;9.226;2023-08-17T02:43:52;21.60;71.80
360;DHT22;168;48.872;9.226;2023-08-17T02:46:22;21.50;71.10
360;DHT22;168;48.872;9.226;2023-08-17T02:48:50;21.50;71.40
360;DHT22;168;48.872;9.226;2023-08-17T02:51:19;21.50;72.00
360;DHT22;168;48.872;9.226;2023-08-17T02:53:47;21.60;71.60
360;DHT22;168;48.872;9.226;2023-08-17T02:56:14;21.60;73.00
360;DHT22;168;48.872;9.226;2023-08-17T02:58:42;21.60;73.50
360;DHT22;168;48.872;9.226;2023-08-17T03:01:10;21.60;73.50
360;DHT22;168;48.872;9.226;2023-08-17T03:03:39;21.40;71.30
360;DHT22;168;48.872;9.226;2023-08-17T03:06:08;21.30;69.20
360;DHT22;168;48.872;9.226;2023-08-17T03:08:36;21.40;69.30
360;DHT22;168;48.872;9.226;2023-08-17T03:11:04;21.40;69.20
360;DHT22;168;48.872;9.226;2023-08-17T03:13:34;21.40;69.10
360;DHT22;168;48.872;9.226;2023-08-17T03:16:02;21.50;70.40
360;DHT22;168;48.872;9.226;2023-08-17T03:18:31;21.60;70.70
360;DHT22;168;48.872;9.226;2023-08-17T03:21:00;21.60;71.20
360;DHT22;168;48.872;9.226;2023-08-17T03:23:28;21.60;71.30
360;DHT22;168;48.872;9.226;2023-08-17T03:25:56;21.70;73.30
360;DHT22;168;48.872;9.226;2023-08-17T03:28:23;21.70;73.90
360;DHT22;168;48.872;9.226;2023-08-17T03:30:55;21.70;73.20
360;DHT22;168;48.872;9.226;2023-08-17T03:33:23;21.40;71.60
360;DHT22;168;48.872;9.226;2023-08-17T03:35:51;21.40;71.20
360;DHT22;168;48.872;9.226;2023-08-17T03:38:19;21.40;70.70
360;DHT22;168;48.872;9.226;2023-08-17T03:40:47;21.20;67.20
360;DHT22;168;48.872;9.226;2023-08-17T03:43:15;21.20;66.40
360;DHT22;168;48.872;9.226;2023-08-17T03:45:43;21.30;67.60
360;DHT22;168;48.872;9.226;2023-08-17T03:48:11;21.40;68.60
360;DHT22;168;48.872;9.226;2023-08-17T03:50:38;21.50;71.00
360;DHT22;168;48.872;9.226;2023-08-17T03:53:06;21.50;71.30
360;DHT22;168;48.872;9.226;2023-08-17T03:55:36;21.40;70.30
360;DHT22;168;48.872;9.226;2023-08-17T03:58:03;21.40;68.70
360;DHT22;168;48.872;9.226;2023-08-17T04:00:31;21.40;66.90
360;DHT22;168;48.872;9.226;2023-08-17T04:02:59;21.30;66.20
360;DHT22;168;48.872;9.226;2023-08-17T04:05:27;21.30;67.10
360;DHT22;168;48.872;9.226;2023-08-17T04:07:55;21.30;68.20
360;DHT22;168;48.872;9.226;2023-08-17T04:10:27;21.40;69.60
360;DHT22;168;48.872;9.226;2023-08-17T04:12:56;21.50;71.20
360;DHT22;168;48.872;9.226;2023-08-17T04:15:24;21.40;70.10
360;DHT22;168;48.872;9.226;2023-08-17T04:17:53;21.30;68.60
360;DHT22;168;48.872;9.226;2023-08-17T04:20:21;21.30;67.80
360;DHT22;168;48.872;9.226;2023-08-17T04:22:49;21.30;68.70
360;DHT22;168;48.872;9.226;2023-08-17T04:25:16;21.30;66.80
360;DHT22;168;48.872;9.226;2023-08-17T04:27:44;21.30;67.50
360;DHT22;168;48.872;9.226;2023-08-17T04:30:13;21.20;66.10
360;DHT22;168;48.872;9.226;2023-08-17T04:32:40;21.30;66.50
360;DHT22;168;48.872;9.226;2023-08-17T04:35:08;21.30;67.10
360;DHT22;168;48.872;9.226;2023-08-17T04:37:37;21.20;65.70
360;DHT22;168;48.872;9.226;2023-08-17T04:40:07;21.10;64.80
360;DHT22;168;48.872;9.226;2023-08-17T04:42:36;21.10;62.60
360;DHT22;168;48.872;9.226;2023-08-17T04:45:04;21.10;63.10
360;DHT22;168;48.872;9.226;2023-08-17T04:47:33;21.40;66.20
360;DHT22;168;48.872;9.226;2023-08-17T04:50:01;21.40;67.40
360;DHT22;168;48.872;9.226;2023-08-17T04:52:29;21.20;65.00
360;DHT22;168;48.872;9.226;2023-08-17T04:54:56;21.40;65.30
360;DHT22;168;48.872;9.226;2023-08-17T04:57:24;21.50;68.20
360;DHT22;168;48.872;9.226;2023-08-17T04:59:52;21.50;68.20
360;DHT22;168;48.872;9.226;2023-08-17T05:02:20;21.50;67.50
360;DHT22;168;48.872;9.226;2023-08-17T05:04:50;21.50;66.90
360;DHT22;168;48.872;9.226;2023-08-17T05:07:19;21.70;68.90
360;DHT22;168;48.872;9.226;2023-08-17T05:10:06;21.70;70.90
360;DHT22;168;48.872;9.226;2023-08-17T05:12:34;21.80;71.30
360;DHT22;168;48.872;9.226;2023-08-17T05:15:05;21.80;71.40
360;DHT22;168;48.872;9.226;2023-08-17T05:17:41;21.80;72.10
360;DHT22;168;48.872;9.226;2023-08-17T05:20:11;22.00;74.20
360;DHT22;168;48.872;9.226;2023-08-17T05:23:18;21.90;73.70
360;DHT22;168;48.872;9.226;2023-08-17T05:25:47;22.00;72.50
360;DHT22;168;48.872;9.226;2023-08-17T05:28:15;22.00;72.10
360;DHT22;168;48.872;9.226;2023-08-17T05:30:44;22.00;72.20
360;DHT22;168;48.872;9.226;2023-08-17T05:33:12;22.10;74.00
360;DHT22;168;48.872;9.226;2023-08-17T05:35:41;22.20;75.30
360;DHT22;168;48.872;9.226;2023-08-17T05:38:10;22.30;75.00
360;DHT22;168;48.872;9.226;2023-08-17T05:40:38;22.30;75.10
360;DHT22;168;48.872;9.226;2023-08-17T05:43:06;22.40;77.20
360;DHT22;168;48.872;9.226;2023-08-17T05:45:35;22.50;77.90
360;DHT22;168;48.872;9.226;2023-08-17T05:48:04;22.50;79.00
360;DHT22;168;48.872;9.226;2023-08-17T05:50:33;22.60;79.30
360;DHT22;168;48.872;9.226;2023-08-17T05:53:04;22.70;80.50
360;DHT22;168;48.872;9.226;2023-08-17T05:55:31;22.80;82.10
360;DHT22;168;48.872;9.226;2023-08-17T05:58:00;22.90;81.90
360;DHT22;168;48.872;9.226;2023-08-17T06:00:28;22.90;81.50
360;DHT22;168;48.872;9.226;2023-08-17T06:02:57;22.90;81.60
360;DHT22;168;48.872;9.226;2023-08-17T06:05:28;22.90;81.60
360;DHT22;168;48.872;9.226;2023-08-17T06:07:57;23.00;81.20
360;DHT22;168;48.872;9.226;2023-08-17T06:10:27;23.00;80.70
360;DHT22;168;48.872;9.226;2023-08-17T06:12:55;23.10;80.90
360;DHT22;168;48.872;9.226;2023-08-17T06:15:23;23.10;81.60
360;DHT22;168;48.872;9.226;2023-08-17T06:17:51;23.20;82.50
360;DHT22;168;48.872;9.226;2023-08-17T06:20:19;23.30;82.80
360;DHT22;168;48.872;9.226;2023-08-17T06:22:47;23.30;83.70
360;DHT22;168;48.872;9.226;2023-08-17T06:25:16;23.40;84.40
360;DHT22;168;48.872;9.226;2023-08-17T06:27:45;23.50;85.40
360;DHT22;168;48.872;9.226;2023-08-17T06:30:13;23.50;86.70
360;DHT22;168;48.872;9.226;2023-08-17T06:32:42;23.60;87.00
360;DHT22;168;48.872;9.226;2023-08-17T06:35:10;23.70;87.20
360;DHT22;168;48.872;9.226;2023-08-17T06:37:37;23.80;88.00
360;DHT22;168;48.872;9.226;2023-08-17T06:40:06;23.90;89.10
360;DHT22;168;48.872;9.226;2023-08-17T06:42:49;24.00;89.60
360;DHT22;168;48.872;9.226;2023-08-17T06:45:18;24.10;89.80
360;DHT22;168;48.872;9.226;2023-08-17T06:47:46;24.20;90.40
360;DHT22;168;48.872;9.226;2023-08-17T06:50:16;24.30;90.40
360;DHT22;168;48.872;9.226;2023-08-17T06:52:45;24.40;90.70
360;DHT22;168;48.872;9.226;2023-08-17T06:55:13;24.60;90.90
360;DHT22;168;48.872;9.226;2023-08-17T06:57:43;24.70;91.40
360;DHT22;168;48.872;9.226;2023-08-17T07:00:13;24.90;91.80
360;DHT22;168;48.872;9.226;2023-08-17T07:02:55;25.00;91.90
360;DHT22;168;48.872;9.226;2023-08-17T07:05:24;25.20;92.00
360;DHT22;168;48.872;9.226;2023-08-17T07:07:51;25.30;91.80
360;DHT22;168;48.872;9.226;2023-08-17T07:10:21;25.40;91.70
360;DHT22;168;48.872;9.226;2023-08-17T07:12:49;25.50;91.70
360;DHT22;168;48.872;9.226;2023-08-17T07:15:18;25.70;91.80
360;DHT22;168;48.872;9.226;2023-08-17T07:17:46;25.80;91.30
360;DHT22;168;48.872;9.226;2023-08-17T07:20:14;26.00;90.50
360;DHT22;168;48.872;9.226;2023-08-17T07:22:44;26.10;90.10
360;DHT22;168;48.872;9.226;2023-08-17T07:25:11;26.10;89.90
360;DHT22;168;48.872;9.226;2023-08-17T07:27:40;26.20;90.20
360;DHT22;168;48.872;9.226;2023-08-17T07:30:09;26.30;90.10
360;DHT22;168;48.872;9.226;2023-08-17T07:32:39;26.40;89.70
360;DHT22;168;48.872;9.226;2023-08-17T07:35:08;26.40;89.90
360;DHT22;168;48.872;9.226;2023-08-17T07:37:36;26.50;90.00
360;DHT22;168;48.872;9.226;2023-08-17T07:40:06;26.60;90.00
360;DHT22;168;48.872;9.226;2023-08-17T07:42:37;26.70;89.50
360;DHT22;168;48.872;9.226;2023-08-17T07:45:07;26.80;88.80
360;DHT22;168;48.872;9.226;2023-08-17T07:47:36;26.80;88.90
360;DHT22;168;48.872;9.226;2023-08-17T07:50:07;26.80;88.50
360;DHT22;168;48.872;9.226;2023-08-17T07:52:37;26.80;88.80
360;DHT22;168;48.872;9.226;2023-08-17T07:55:08;26.80;88.50
360;DHT22;168;48.872;9.226;2023-08-17T07:57:41;26.80;88.90
360;DHT22;168;48.872;9.226;2023-08-17T08:00:12;26.90;88.90
360;DHT22;168;48.872;9.226;2023-08-17T08:02:41;27.00;88.40
360;DHT22;168;48.872;9.226;2023-08-17T08:05:10;27.00;88.50
360;DHT22;168;48.872;9.226;2023-08-17T08:07:41;27.00;88.20
360;DHT22;168;48.872;9.226;2023-08-17T08:10:10;27.10;87.80
360;DHT22;168;48.872;9.226;2023-08-17T08:12:39;27.10;87.50
360;DHT22;168;48.872;9.226;2023-08-17T08:15:09;27.00;87.60
360;DHT22;168;48.872;9.226;2023-08-17T08:17:37;27.00;87.30
360;DHT22;168;48.872;9.226;2023-08-17T08:20:06;26.90;87.80
360;DHT22;168;48.872;9.226;2023-08-17T08:22:35;26.80;88.30
360;DHT22;168;48.872;9.226;2023-08-17T08:25:03;26.70;88.40
360;DHT22;168;48.872;9.226;2023-08-17T08:27:34;26.60;88.20
360;DHT22;168;48.872;9.226;2023-08-17T08:30:02;26.50;88.60
360;DHT22;168;48.872;9.226;2023-08-17T08:32:30;26.40;88.80
360;DHT22;168;48.872;9.226;2023-08-17T08:34:58;26.20;89.30
360;DHT22;168;48.872;9.226;2023-08-17T08:37:27;26.20;89.30
360;DHT22;168;48.872;9.226;2023-08-17T08:39:57;26.20;89.60
360;DHT22;168;48.872;9.226;2023-08-17T08:42:27;26.10;90.30
360;DHT22;168;48.872;9.226;2023-08-17T08:44:56;26.10;90.60
360;DHT22;168;48.872;9.226;2023-08-17T08:47:25;26.10;90.50
360;DHT22;168;48.872;9.226;2023-08-17T08:49:59;26.20;90.70
360;DHT22;168;48.872;9.226;2023-08-17T08:52:34;26.20;90.30
360;DHT22;168;48.872;9.226;2023-08-17T08:55:10;26.30;90.20
360;DHT22;168;48.872;9.226;2023-08-17T08:57:39;26.30;90.10
360;DHT22;168;48.872;9.226;2023-08-17T09:00:11;26.40;89.70
360;DHT22;168;48.872;9.226;2023-08-17T09:02:42;26.30;89.60
360;DHT22;168;48.872;9.226;2023-08-17T09:05:13;26.20;90.10
360;DHT22;168;48.872;9.226;2023-08-17T09:07:43;26.30;90.50
360;DHT22;168;48.872;9.226;2023-08-17T09:10:16;26.30;90.70
360;DHT22;168;48.872;9.226;2023-08-17T09:12:47;26.40;89.80
360;DHT22;168;48.872;9.226;2023-08-17T09:15:18;26.50;89.60
360;DHT22;168;48.872;9.226;2023-08-17T09:17:49;26.50;89.80
360;DHT22;168;48.872;9.226;2023-08-17T09:20:40;26.60;89.40
360;DHT22;168;48.872;9.226;2023-08-17T09:23:12;26.70;89.20
360;DHT22;168;48.872;9.226;2023-08-17T09:25:44;26.70;89.00
360;DHT22;168;48.872;9.226;2023-08-17T09:28:14;26.60;89.10
360;DHT22;168;48.872;9.226;2023-08-17T09:30:52;26.50;89.40
360;DHT22;168;48.872;9.226;2023-08-17T09:33:22;26.30;90.10
360;DHT22;168;48.872;9.226;2023-08-17T09:35:53;26.30;90.40
360;DHT22;168;48.872;9.226;2023-08-17T09:38:24;26.30;90.20
360;DHT22;168;48.872;9.226;2023-08-17T09:40:58;26.40;90.70
360;DHT22;168;48.872;9.226;2023-08-17T09:43:31;26.50;90.60
360;DHT22;168;48.872;9.226;2023-08-17T09:46:02;26.70;90.30
360;DHT22;168;48.872;9.226;2023-08-17T09:48:36;26.80;90.00
360;DHT22;168;48.872;9.226;2023-08-17T09:51:07;26.90;90.00
360;DHT22;168;48.872;9.226;2023-08-17T09:53:38;27.00;90.00
360;DHT22;168;48.872;9.226;2023-08-17T09:56:10;27.10;90.00
360;DHT22;168;48.872;9.226;2023-08-17T09:58:40;27.30;89.50
360;DHT22;168;48.872;9.226;2023-08-17T10:01:10;27.40;88.20
360;DHT22;168;48.872;9.226;2023-08-17T10:03:43;27.60;88.40
360;DHT22;168;48.872;9.226;2023-08-17T10:06:20;27.70;88.30
360;DHT22;168;48.872;9.226;2023-08-17T10:08:52;27.80;88.10
360;DHT22;168;48.872;9.226;2023-08-17T10:11:23;28.00;87.80
360;DHT22;168;48.872;9.226;2023-08-17T10:13:56;28.20;87.50
360;DHT22;168;48.872;9.226;2023-08-17T10:16:29;28.40;86.50
360;DHT22;168;48.872;9.226;2023-08-17T10:19:11;28.60;86.40
360;DHT22;168;48.872;9.226;2023-08-17T10:21:48;28.70;85.70
360;DHT22;168;48.872;9.226;2023-08-17T10:24:20;28.90;84.30
360;DHT22;168;48.872;9.226;2023-08-17T10:26:52;28.90;85.10
360;DHT22;168;48.872;9.226;2023-08-17T10:29:23;29.00;84.60
360;DHT22;168;48.872;9.226;2023-08-17T10:31:54;29.10;84.40
360;DHT22;168;48.872;9.226;2023-08-17T10:34:25;29.20;84.00
360;DHT22;168;48.872;9.226;2023-08-17T10:36:59;29.40;84.50
360;DHT22;168;48.872;9.226;2023-08-17T10:39:31;29.60;83.90
360;DHT22;168;48.872;9.226;2023-08-17T10:42:04;29.90;81.50
360;DHT22;168;48.872;9.226;2023-08-17T10:44:42;30.00;80.90
360;DHT22;168;48.872;9.226;2023-08-17T10:47:23;30.10;79.90
360;DHT22;168;48.872;9.226;2023-08-17T10:49:56;30.20;80.90
360;DHT22;168;48.872;9.226;2023-08-17T10:52:30;30.30;80.50
360;DHT22;168;48.872;9.226;2023-08-17T10:55:03;30.30;80.90
360;DHT22;168;48.872;9.226;2023-08-17T10:57:36;30.40;78.70
360;DHT22;168;48.872;9.226;2023-08-17T11:00:17;30.10;79.10
360;DHT22;168;48.872;9.226;2023-08-17T11:02:55;29.90;81.30
360;DHT22;168;48.872;9.226;2023-08-17T11:05:53;29.90;81.70
360;DHT22;168;48.872;9.226;2023-08-17T11:08:26;29.90;81.70
360;DHT22;168;48.872;9.226;2023-08-17T11:11:02;29.90;82.10
360;DHT22;168;48.872;9.226;2023-08-17T11:13:37;29.90;81.80
360;DHT22;168;48.872;9.226;2023-08-17T11:16:09;30.00;80.50
360;DHT22;168;48.872;9.226;2023-08-17T11:18:40;30.10;80.80
360;DHT22;168;48.872;9.226;2023-08-17T11:21:12;29.90;81.80
360;DHT22;168;48.872;9.226;2023-08-17T11:23:46;29.80;82.00
360;DHT22;168;48.872;9.226;2023-08-17T11:26:18;29.60;82.50
360;DHT22;168;48.872;9.226;2023-08-17T11:28:50;29.40;82.90
360;DHT22;168;48.872;9.226;2023-08-17T11:31:20;29.20;83.40
360;DHT22;168;48.872;9.226;2023-08-17T11:33:49;29.10;85.10
360;DHT22;168;48.872;9.226;2023-08-17T11:36:18;29.10;84.50
360;DHT22;168;48.872;9.226;2023-08-17T11:38:48;29.10;84.90
360;DHT22;168;48.872;9.226;2023-08-17T11:41:18;29.30;84.80
360;DHT22;168;48.872;9.226;2023-08-17T11:43:51;29.40;85.00
360;DHT22;168;48.872;9.226;2023-08-17T11:46:26;29.50;83.10
360;DHT22;168;48.872;9.226;2023-08-17T11:48:58;29.60;82.90
360;DHT22;168;48.872;9.226;2023-08-17T11:51:32;29.50;82.30
360;DHT22;168;48.872;9.226;2023-08-17T11:54:02;29.50;82.30
360;DHT22;168;48.872;9.226;2023-08-17T11:56:37;29.50;82.40
360;DHT22;168;48.872;9.226;2023-08-17T11:59:15;29.60;82.00
360;DHT22;168;48.872;9.226;2023-08-17T12:01:47;29.60;82.90
360;DHT22;168;48.872;9.226;2023-08-17T12:04:22;29.60;83.60
360;DHT22;168;48.872;9.226;2023-08-17T12:06:55;29.60;82.30
360;DHT22;168;48.872;9.226;2023-08-17T12:09:27;29.50;82.60
360;DHT22;168;48.872;9.226;2023-08-17T12:12:03;29.50;82.60
360;DHT22;168;48.872;9.226;2023-08-17T12:14:41;29.50;82.60
360;DHT22;168;48.872;9.226;2023-08-17T12:17:15;29.40;83.30
360;DHT22;168;48.872;9.226;2023-08-17T12:19:50;29.40;83.00
360;DHT22;168;48.872;9.226;2023-08-17T12:22:26;29.60;81.90
360;DHT22;168;48.872;9.226;2023-08-17T12:24:59;29.80;82.10
360;DHT22;168;48.872;9.226;2023-08-17T12:27:32;30.00;81.00
360;DHT22;168;48.872;9.226;2023-08-17T12:30:05;30.00;81.40
360;DHT22;168;48.872;9.226;2023-08-17T12:32:42;30.00;80.90
360;DHT22;168;48.872;9.226;2023-08-17T12:35:12;30.10;80.70
360;DHT22;168;48.872;9.226;2023-08-17T12:37:43;30.20;80.20
360;DHT22;168;48.872;9.226;2023-08-17T12:40:14;30.10;79.90
360;DHT22;168;48.872;9.226;2023-08-17T12:42:45;30.10;80.30
360;DHT22;168;48.872;9.226;2023-08-17T12:45:19;30.20;79.20
360;DHT22;168;48.872;9.226;2023-08-17T12:47:53;30.20;78.60
360;DHT22;168;48.872;9.226;2023-08-17T12:50:25;30.20;78.50
360;DHT22;168;48.872;9.226;2023-08-17T12:52:57;30.20;78.60
360;DHT22;168;48.872;9.226;2023-08-17T12:55:27;30.10;78.60
360;DHT22;168;48.872;9.226;2023-08-17T12:57:58;30.00;78.30
360;DHT22;168;48.872;9.226;2023-08-17T13:00:30;29.80;77.60
360;DHT22;168;48.872;9.226;2023-08-17T13:03:01;29.60;77.90
360;DHT22;168;48.872;9.226;2023-08-17T13:05:38;29.50;77.20
360;DHT22;168;48.872;9.226;2023-08-17T13:08:08;29.40;77.70
360;DHT22;168;48.872;9.226;2023-08-17T13:10:37;29.30;78.60
360;DHT22;168;48.872;9.226;2023-08-17T13:13:07;29.30;79.20
360;DHT22;168;48.872;9.226;2023-08-17T13:15:37;29.40;79.80
360;DHT22;168;48.872;9.226;2023-08-17T13:18:05;29.40;81.30
360;DHT22;168;48.872;9.226;2023-08-17T13:20:36;29.30;83.10
360;DHT22;168;48.872;9.226;2023-08-17T13:23:07;29.10;85.00
360;DHT22;168;48.872;9.226;2023-08-17T13:25:38;28.70;86.40
360;DHT22;168;48.872;9.226;2023-08-17T13:28:10;28.40;87.30
360;DHT22;168;48.872;9.226;2023-08-17T13:30:43;28.10;87.90
360;DHT22;168;48.872;9.226;2023-08-17T13:33:14;27.80;88.70
360;DHT22;168;48.872;9.226;2023-08-17T13:35:45;27.60;89.40
360;DHT22;168;48.872;9.226;2023-08-17T13:38:14;27.30;90.00
360;DHT22;168;48.872;9.226;2023-08-17T13:40:45;27.10;90.10
360;DHT22;168;48.872;9.226;2023-08-17T13:43:16;26.70;90.60
360;DHT22;168;48.872;9.226;2023-08-17T13:45:50;26.50;91.00
360;DHT22;168;48.872;9.226;2023-08-17T13:48:19;26.30;91.30
360;DHT22;168;48.872;9.226;2023-08-17T13:50:49;26.10;91.20
360;DHT22;168;48.872;9.226;2023-08-17T13:53:20;25.80;89.30
360;DHT22;168;48.872;9.226;2023-08-17T13:55:51;25.30;87.70
360;DHT22;168;48.872;9.226;2023-08-17T13:58:23;25.00;85.00
360;DHT22;168;48.872;9.226;2023-08-17T14:00:56;24.60;84.60
360;DHT22;168;48.872;9.226;2023-08-17T14:03:28;24.30;82.60
360;DHT22;168;48.872;9.226;2023-08-17T14:05:59;24.10;79.90
360;DHT22;168;48.872;9.226;2023-08-17T14:08:31;23.90;79.20
360;DHT22;168;48.872;9.226;2023-08-17T14:11:01;23.80;76.70
360;DHT22;168;48.872;9.226;2023-08-17T14:13:31;23.80;76.30
360;DHT22;168;48.872;9.226;2023-08-17T14:16:06;23.90;79.60
360;DHT22;168;48.872;9.226;2023-08-17T14:18:36;23.90;78.40
360;DHT22;168;48.872;9.226;2023-08-17T14:21:07;23.90;77.50
360;DHT22;168;48.872;9.226;2023-08-17T14:23:39;23.90;77.20
360;DHT22;168;48.872;9.226;2023-08-17T14:26:10;24.10;79.40
360;DHT22;168;48.872;9.226;2023-08-17T14:28:41;24.20;80.40
360;DHT22;168;48.872;9.226;2023-08-17T14:31:15;24.30;81.40
360;DHT22;168;48.872;9.226;2023-08-17T14:33:48;24.40;82.10
360;DHT22;168;48.872;9.226;2023-08-17T14:36:20;24.60;81.80
360;DHT22;168;48.872;9.226;2023-08-17T14:38:52;24.80;85.70
360;DHT22;168;48.872;9.226;2023-08-17T14:41:24;25.00;86.20
360;DHT22;168;48.872;9.226;2023-08-17T14:43:59;25.00;85.60
360;DHT22;168;48.872;9.226;2023-08-17T14:46:32;25.10;84.40
360;DHT22;168;48.872;9.226;2023-08-17T14:49:03;25.20;84.50
360;DHT22;168;48.872;9.226;2023-08-17T14:51:38;25.40;85.30
360;DHT22;168;48.872;9.226;2023-08-17T14:54:11;25.50;86.90
360;DHT22;168;48.872;9.226;2023-08-17T14:56:42;25.70;89.10
360;DHT22;168;48.872;9.226;2023-08-17T14:59:14;25.90;89.50
360;DHT22;168;48.872;9.226;2023-08-17T15:01:48;26.10;89.50
360;DHT22;168;48.872;9.226;2023-08-17T15:04:21;26.30;89.70
360;DHT22;168;48.872;9.226;2023-08-17T15:06:53;26.40;90.70
360;DHT22;168;48.872;9.226;2023-08-17T15:09:23;26.60;90.90
360;DHT22;168;48.872;9.226;2023-08-17T15:11:54;26.80;91.10
360;DHT22;168;48.872;9.226;2023-08-17T15:14:24;26.90;91.00
360;DHT22;168;48.872;9.226;2023-08-17T15:16:56;27.00;91.00
360;DHT22;168;48.872;9.226;2023-08-17T15:19:27;27.10;90.90
360;DHT22;168;48.872;9.226;2023-08-17T15:21:59;27.20;91.00
360;DHT22;168;48.872;9.226;2023-08-17T15:24:30;27.30;91.00
360;DHT22;168;48.872;9.226;2023-08-17T15:27:01;27.40;90.90
360;DHT22;168;48.872;9.226;2023-08-17T15:29:32;27.50;90.90
360;DHT22;168;48.872;9.226;2023-08-17T15:32:04;27.60;90.90
360;DHT22;168;48.872;9.226;2023-08-17T15:34:34;27.70;90.80
360;DHT22;168;48.872;9.226;2023-08-17T15:37:05;27.80;90.50
360;DHT22;168;48.872;9.226;2023-08-17T15:39:36;27.90;90.60
360;DHT22;168;48.872;9.226;2023-08-17T15:42:08;27.90;90.60
360;DHT22;168;48.872;9.226;2023-08-17T15:44:39;27.90;90.30
360;DHT22;168;48.872;9.226;2023-08-17T15:47:11;27.80;90.20
360;DHT22;168;48.872;9.226;2023-08-17T15:49:41;27.80;90.30
360;DHT22;168;48.872;9.226;2023-08-17T15:52:11;27.80;90.30
360;DHT22;168;48.872;9.226;2023-08-17T15:54:43;27.80;90.20
360;DHT22;168;48.872;9.226;2023-08-17T15:57:13;27.80;89.90
360;DHT22;168;48.872;9.226;2023-08-17T15:59:44;27.80;90.00
360;DHT22;168;48.872;9.226;2023-08-17T16:02:18;27.80;90.00
360;DHT22;168;48.872;9.226;2023-08-17T16:04:46;27.80;90.20
360;DHT22;168;48.872;9.226;2023-08-17T16:07:17;27.80;90.50
360;DHT22;168;48.872;9.226;2023-08-17T16:10:25;27.90;90.10
360;DHT22;168;48.872;9.226;2023-08-17T16:12:56;28.00;90.10
360;DHT22;168;48.872;9.226;2023-08-17T16:15:27;28.10;89.90
360;DHT22;168;48.872;9.226;2023-08-17T16:18:16;28.20;89.80
360;DHT22;168;48.872;9.226;2023-08-17T16:20:48;28.20;88.90
360;DHT22;168;48.872;9.226;2023-08-17T16:23:27;28.30;89.20
360;DHT22;168;48.872;9.226;2023-08-17T16:25:56;28.40;89.00
360;DHT22;168;48.872;9.226;2023-08-17T16:28:26;28.50;88.80
360;DHT22;168;48.872;9.226;2023-08-17T16:30:54;28.50;88.10
360;DHT22;168;48.872;9.226;2023-08-17T16:33:24;28.50;88.40
360;DHT22;168;48.872;9.226;2023-08-17T16:35:57;28.50;88.50
360;DHT22;168;48.872;9.226;2023-08-17T16:38:31;28.50;88.60
360;DHT22;168;48.872;9.226;2023-08-17T16:41:42;28.50;88.60
360;DHT22;168;48.872;9.226;2023-08-17T16:58:02;28.20;89.10
360;DHT22;168;48.872;9.226;2023-08-17T17:00:32;28.10;89.40
360;DHT22;168;48.872;9.226;2023-08-17T17:03:03;28.20;89.50
360;DHT22;168;48.872;9.226;2023-08-17T17:05:34;28.30;89.40
360;DHT22;168;48.872;9.226;2023-08-17T17:08:04;28.60;88.90
360;DHT22;168;48.872;9.226;2023-08-17T17:10:34;29.00;88.30
360;DHT22;168;48.872;9.226;2023-08-17T17:13:07;29.50;87.10